Time;durP1;ratioP1;P1;durP2;ratioP2;P2;SDS_P1;SDS_P2;PMS_P1;PMS_P2;Temp;Humidity;BMP_temperature;BMP_pressure;BME280_temperature;BME280_humidity;BME280_pressure;Samples;Min_cycle;Max_cycle;Signal;HPM_P1;HPM_P2
2022/06/05 00:01:27;;;;;;;;;;;;;;;;;;5093573;28;19948;-72
2022/06/05 00:03:53;;;;;;;;;;;;;;;;;;5075250;28;19959;-72
2022/06/05 00:06:19;;;;;;;;;;;;;;;;;;5075640;28;19908;-72
2022/06/05 00:08:44;;;;;;;;;;;;;;;;;;5058665;28;19992;-73
2022/06/05 00:11:10;;;;;;;;;;;;;;;;;;5058538;28;19983;-72
2022/06/05 00:13:35;;;;;;;;;;;;;;;;;;5058655;28;19907;-71
2022/06/05 00:16:00;;;;;;;;;;;;;;;;;;5075040;28;20014;-72
2022/06/05 00:18:26;;;;;;;;;;;;;;;;;;5058834;28;19908;-72
2022/06/05 00:20:53;;;;;;;;;;;;;;;;;;5057717;28;20222;-74
2022/06/05 00:23:18;;;;;;;;;;;;;;;;;;5058606;28;19927;-72
2022/06/05 00:25:44;;;;;;;;;;;;;;;;;;5075054;28;19960;-72
2022/06/05 00:28:09;;;;;;;;;;;;;;;;;;5058618;28;19919;-72
2022/06/05 00:30:35;;;;;;;;;;;;;;;;;;5074944;28;20012;-72
2022/06/05 00:33:00;;;;;;;;;;;;;;;;;;5074882;28;20443;-72
2022/06/05 00:35:31;;;;;;;;;;;;;;;;;;5092999;28;20371;-72
2022/06/05 00:37:56;;;;;;;;;;;;;;;;;;5074731;28;19908;-72
2022/06/05 00:40:22;;;;;;;;;;;;;;;;;;5041707;28;19908;-72
2022/06/05 00:42:47;;;;;;;;;;;;;;;;;;5074760;28;19987;-72
2022/06/05 00:45:12;;;;;;;;;;;;;;;;;;5092835;28;20258;-72
2022/06/05 00:47:38;;;;;;;;;;;;;;;;;;5058072;28;20337;-72
2022/06/05 00:50:03;;;;;;;;;;;;;;;;;;5074849;28;19912;-72
2022/06/05 00:52:29;;;;;;;;;;;;;;;;;;5074851;28;20322;-72
2022/06/05 00:54:54;;;;;;;;;;;;;;;;;;5058021;28;20280;-72
2022/06/05 00:57:20;;;;;;;;;;;;;;;;;;5074821;28;19912;-72
2022/06/05 00:59:45;;;;;;;;;;;;;;;;;;5074834;28;20007;-72
2022/06/05 01:02:11;;;;;;;;;;;;;;;;;;5092833;28;19951;-72
2022/06/05 01:04:36;;;;;;;;;;;;;;;;;;5092549;28;19915;-73
2022/06/05 01:07:02;;;;;;;;;;;;;;;;;;5057890;28;19915;-72
2022/06/05 01:09:27;;;;;;;;;;;;;;;;;;5092614;28;19940;-72
2022/06/05 01:11:53;;;;;;;;;;;;;;;;;;5074363;28;19965;-72
2022/06/05 01:14:19;;;;;;;;;;;;;;;;;;5057621;28;20053;-71
2022/06/05 01:16:44;;;;;;;;;;;;;;;;;;5058000;28;19908;-70
2022/06/05 01:19:10;;;;;;;;;;;;;;;;;;5074454;28;20449;-71
2022/06/05 01:21:36;;;;;;;;;;;;;;;;;;5074712;28;19915;-71
2022/06/05 01:24:01;;;;;;;;;;;;;;;;;;5057500;28;20282;-72
2022/06/05 01:26:27;;;;;;;;;;;;;;;;;;5092287;28;19915;-72
2022/06/05 01:28:52;;;;;;;;;;;;;;;;;;5074453;28;20274;-71
2022/06/05 01:31:18;;;;;;;;;;;;;;;;;;5074221;28;19990;-71
2022/06/05 01:33:43;;;;;;;;;;;;;;;;;;5078074;28;20337;-71
2022/06/05 01:36:09;;;;;;;;;;;;;;;;;;5078159;28;19912;-71
2022/06/05 01:38:34;;;;;;;;;;;;;;;;;;5096430;28;19911;-72
2022/06/05 01:41:00;;;;;;;;;;;;;;;;;;5045082;28;19943;-72
2022/06/05 01:43:26;;;;;;;;;;;;;;;;;;5096298;28;20007;-71
2022/06/05 01:45:51;;;;;;;;;;;;;;;;;;5045222;28;19974;-72
2022/06/05 01:48:17;;;;;;;;;;;;;;;;;;5061500;28;19908;-71
2022/06/05 01:50:42;;;;;;;;;;;;;;;;;;5096160;28;19995;-72
2022/06/05 01:53:08;;;;;;;;;;;;;;;;;;5077918;28;19904;-71
2022/06/05 01:55:33;;;;;;;;;;;;;;;;;;5096070;28;20002;-71
2022/06/05 01:57:59;;;;;;;;;;;;;;;;;;5078356;28;19908;-72
2022/06/05 02:00:25;;;;;;;;;;;;;;;;;;5077939;28;19942;-71
2022/06/05 02:02:51;;;;;;;;;;;;;;;;;;5077941;28;19961;-71
2022/06/05 02:05:17;;;;;;;;;;;;;;;;;;5044995;28;19999;-71
2022/06/05 02:07:45;;;;;;;;;;;;;;;;;;5078270;28;20045;-73
2022/06/05 02:10:10;;;;;;;;;;;;;;;;;;5061140;28;19983;-73
2022/06/05 02:12:36;;;;;;;;;;;;;;;;;;5061149;28;19911;-72
2022/06/05 02:15:01;;;;;;;;;;;;;;;;;;5077581;28;19916;-71
2022/06/05 02:17:27;;;;;;;;;;;;;;;;;;5077563;28;19933;-72
2022/06/05 02:19:52;;;;;;;;;;;;;;;;;;5077448;28;19904;-72
2022/06/05 02:22:18;;;;;;;;;;;;;;;;;;5060933;28;19912;-72
2022/06/05 02:24:44;;;;;;;;;;;;;;;;;;5060775;28;19908;-72
2022/06/05 02:27:09;;;;;;;;;;;;;;;;;;5043951;28;19999;-72
2022/06/05 02:29:34;;;;;;;;;;;;;;;;;;5095275;28;19915;-72
2022/06/05 02:32:00;;;;;;;;;;;;;;;;;;5095356;28;19953;-72
2022/06/05 02:34:27;;;;;;;;;;;;;;;;;;5095141;28;19994;-72
2022/06/05 02:36:53;;;;;;;;;;;;;;;;;;5077235;28;19915;-72
2022/06/05 02:39:18;;;;;;;;;;;;;;;;;;5060535;28;19908;-72
2022/06/05 02:41:44;;;;;;;;;;;;;;;;;;5060758;28;20287;-72
2022/06/05 02:44:29;;;;;;;;;;;;;;;;;;5076114;28;20382;-72
2022/06/05 02:46:54;;;;;;;;;;;;;;;;;;5044151;28;19908;-71
2022/06/05 02:49:20;;;;;;;;;;;;;;;;;;5060516;28;19908;-71
2022/06/05 02:51:45;;;;;;;;;;;;;;;;;;5095027;28;19908;-71
2022/06/05 02:54:11;;;;;;;;;;;;;;;;;;5043593;28;19966;-71
2022/06/05 02:56:36;;;;;;;;;;;;;;;;;;5060149;28;19963;-72
2022/06/05 02:59:02;;;;;;;;;;;;;;;;;;5060313;28;19919;-73
2022/06/05 03:04:12;;;;;;;;;;;;;;;;;;5094650;28;20416;-71
2022/06/05 03:06:37;;;;;;;;;;;;;;;;;;5060197;28;19908;-71
2022/06/05 03:09:03;;;;;;;;;;;;;;;;;;5076642;28;19908;-71
2022/06/05 03:11:29;;;;;;;;;;;;;;;;;;5060213;28;19920;-72
2022/06/05 03:13:55;;;;;;;;;;;;;;;;;;5043457;28;19908;-71
2022/06/05 03:16:21;;;;;;;;;;;;;;;;;;5076545;28;19934;-71
2022/06/05 03:18:47;;;;;;;;;;;;;;;;;;5076552;28;19908;-71
2022/06/05 03:21:12;;;;;;;;;;;;;;;;;;5076341;28;19908;-71
2022/06/05 03:23:38;;;;;;;;;;;;;;;;;;5043194;28;19931;-70
2022/06/05 03:26:03;;;;;;;;;;;;;;;;;;5094309;28;20401;-71
2022/06/05 03:28:28;;;;;;;;;;;;;;;;;;5076317;28;19912;-71
2022/06/05 03:30:54;;;;;;;;;;;;;;;;;;5076074;28;20354;-73
2022/06/05 03:33:19;;;;;;;;;;;;;;;;;;5076197;28;19911;-71
2022/06/05 03:35:45;;;;;;;;;;;;;;;;;;5059436;28;20440;-71
2022/06/05 03:38:10;;;;;;;;;;;;;;;;;;5076406;28;19909;-72
2022/06/05 03:40:36;;;;;;;;;;;;;;;;;;5076043;28;19908;-72
2022/06/05 03:43:01;;;;;;;;;;;;;;;;;;5093815;28;19947;-72
2022/06/05 03:45:27;;;;;;;;;;;;;;;;;;5094031;28;19915;-72
2022/06/05 03:47:52;;;;;;;;;;;;;;;;;;5093985;28;19908;-72
2022/06/05 03:50:18;;;;;;;;;;;;;;;;;;5059313;28;19908;-69
2022/06/05 03:52:44;;;;;;;;;;;;;;;;;;5075854;28;19908;-71
2022/06/05 03:55:09;;;;;;;;;;;;;;;;;;5075499;28;19922;-71
2022/06/05 03:57:35;;;;;;;;;;;;;;;;;;5075788;28;19904;-71
2022/06/05 04:00:00;;;;;;;;;;;;;;;;;;5093661;28;19943;-71
2022/06/05 04:02:27;;;;;;;;;;;;;;;;;;5093672;28;19908;-73
2022/06/05 04:04:55;;;;;;;;;;;;;;;;;;5059104;28;19957;-72
2022/06/05 04:07:21;;;;;;;;;;;;;;;;;;5093707;28;19915;-71
2022/06/05 04:09:46;;;;;;;;;;;;;;;;;;5093600;28;20290;-72
2022/06/05 04:12:12;;;;;;;;;;;;;;;;;;5058957;28;20302;-72
2022/06/05 04:14:37;;;;;;;;;;;;;;;;;;5058834;28;19958;-72
2022/06/05 04:17:03;;;;;;;;;;;;;;;;;;5042216;28;19908;-72
2022/06/05 04:19:28;;;;;;;;;;;;;;;;;;5058790;28;19961;-71
2022/06/05 04:21:54;;;;;;;;;;;;;;;;;;5075302;28;19941;-72
2022/06/05 04:24:20;;;;;;;;;;;;;;;;;;5093124;28;19916;-71
2022/06/05 04:26:45;;;;;;;;;;;;;;;;;;5075145;28;20256;-71
2022/06/05 04:29:11;;;;;;;;;;;;;;;;;;5058452;28;19919;-72
2022/06/05 04:31:36;;;;;;;;;;;;;;;;;;5058430;28;19957;-72
2022/06/05 04:34:02;;;;;;;;;;;;;;;;;;5092874;28;19950;-71
2022/06/05 04:36:27;;;;;;;;;;;;;;;;;;5075027;28;19914;-71
2022/06/05 04:38:53;;;;;;;;;;;;;;;;;;5092992;28;20264;-71
2022/06/05 04:41:18;;;;;;;;;;;;;;;;;;5092945;28;20010;-71
2022/06/05 04:43:44;;;;;;;;;;;;;;;;;;5074792;28;19908;-71
2022/06/05 04:46:09;;;;;;;;;;;;;;;;;;5058167;28;19961;-71
2022/06/05 04:48:35;;;;;;;;;;;;;;;;;;5074715;28;20286;-71
2022/06/05 04:51:00;;;;;;;;;;;;;;;;;;5058291;28;19907;-72
2022/06/05 04:53:26;;;;;;;;;;;;;;;;;;5074649;28;19995;-71
2022/06/05 04:55:51;;;;;;;;;;;;;;;;;;5074587;28;20058;-71
2022/06/05 04:58:17;;;;;;;;;;;;;;;;;;5074612;28;19915;-72
2022/06/05 05:00:42;;;;;;;;;;;;;;;;;;5074502;28;19915;-71
2022/06/05 05:03:08;;;;;;;;;;;;;;;;;;5074418;28;19908;-71
2022/06/05 05:05:33;;;;;;;;;;;;;;;;;;5092581;28;20204;-71
2022/06/05 05:07:58;;;;;;;;;;;;;;;;;;5091892;28;19987;-71
2022/06/05 05:10:24;;;;;;;;;;;;;;;;;;5097127;22;20231;-78
2022/06/05 05:12:49;;;;;;;;;;;;;;;;;;5034080;28;20324;-78
2022/06/05 05:15:14;;;;;;;;;;;;;;;;;;5031427;28;19913;-77
2022/06/05 05:17:40;;;;;;;;;;;;;;;;;;5033279;28;19913;-78
2022/06/05 05:20:05;;;;;;;;;;;;;;;;;;5031293;28;19963;-78
2022/06/05 05:22:37;;;;;;;;;;;;;;;;;;5015352;28;20390;-78
2022/06/05 05:25:02;;;;;;;;;;;;;;;;;;5031124;28;20367;-78
2022/06/05 05:27:28;;;;;;;;;;;;;;;;;;5048987;28;19983;-78
2022/06/05 05:29:53;;;;;;;;;;;;;;;;;;5031196;28;20392;-77
2022/06/05 05:32:18;;;;;;;;;;;;;;;;;;5047412;28;19915;-78
2022/06/05 05:34:44;;;;;;;;;;;;;;;;;;5033356;28;19952;-77
2022/06/05 05:37:09;;;;;;;;;;;;;;;;;;5014572;28;20422;-78
2022/06/05 05:42:19;;;;;;;;;;;;;;;;;;5031868;28;19909;-77
2022/06/05 05:44:44;;;;;;;;;;;;;;;;;;5052627;28;19909;-79
2022/06/05 05:47:10;;;;;;;;;;;;;;;;;;5052853;28;19936;-78
2022/06/05 05:49:35;;;;;;;;;;;;;;;;;;5052067;28;20356;-78
2022/06/05 05:52:01;;;;;;;;;;;;;;;;;;5052263;28;19909;-78
2022/06/05 05:54:26;;;;;;;;;;;;;;;;;;5031879;28;20388;-78
2022/06/05 05:56:51;;;;;;;;;;;;;;;;;;5051687;28;20383;-79
2022/06/05 05:59:17;;;;;;;;;;;;;;;;;;5031047;28;19909;-78
2022/06/05 06:01:42;;;;;;;;;;;;;;;;;;5050497;28;20184;-77
2022/06/05 06:04:09;;;;;;;;;;;;;;;;;;5030589;28;20007;-78
2022/06/05 06:06:34;;;;;;;;;;;;;;;;;;5049308;28;19959;-76
2022/06/05 06:09:00;;;;;;;;;;;;;;;;;;5030671;28;19917;-77
2022/06/05 06:11:25;;;;;;;;;;;;;;;;;;5030762;28;19913;-79
2022/06/05 06:13:50;;;;;;;;;;;;;;;;;;5031827;28;19972;-78
2022/06/05 06:16:16;;;;;;;;;;;;;;;;;;5025851;28;19920;-78
2022/06/05 06:18:41;;;;;;;;;;;;;;;;;;5034020;28;19909;-78
2022/06/05 06:21:07;;;;;;;;;;;;;;;;;;5028159;28;19956;-79
2022/06/05 06:23:32;;;;;;;;;;;;;;;;;;5034266;28;20311;-78
2022/06/05 06:25:58;;;;;;;;;;;;;;;;;;5027021;28;19909;-78
2022/06/05 06:28:23;;;;;;;;;;;;;;;;;;5035476;28;19909;-78
2022/06/05 06:30:49;;;;;;;;;;;;;;;;;;5033828;28;20435;-78
2022/06/05 06:33:14;;;;;;;;;;;;;;;;;;5035210;28;19909;-77
2022/06/05 06:35:39;;;;;;;;;;;;;;;;;;5032592;28;19917;-78
2022/06/05 06:38:05;;;;;;;;;;;;;;;;;;5035500;28;19940;-77
2022/06/05 06:40:30;;;;;;;;;;;;;;;;;;5031257;28;19917;-78
2022/06/05 06:42:55;;;;;;;;;;;;;;;;;;5026362;28;19947;-78
2022/06/05 06:45:22;;;;;;;;;;;;;;;;;;5034152;28;19909;-77
2022/06/05 06:47:48;;;;;;;;;;;;;;;;;;5034103;28;19913;-77
2022/06/05 06:50:13;;;;;;;;;;;;;;;;;;5012335;28;19913;-78
2022/06/05 06:52:38;;;;;;;;;;;;;;;;;;5034157;28;19912;-77
2022/06/05 06:55:05;;;;;;;;;;;;;;;;;;5010961;28;19913;-77
2022/06/05 06:57:31;;;;;;;;;;;;;;;;;;5035070;28;19913;-77
2022/06/05 06:59:56;;;;;;;;;;;;;;;;;;5025913;28;19963;-77
2022/06/05 07:02:21;;;;;;;;;;;;;;;;;;5035289;28;19924;-77
2022/06/05 07:04:47;;;;;;;;;;;;;;;;;;5034945;28;20379;-77
2022/06/05 07:07:12;;;;;;;;;;;;;;;;;;5034802;28;20326;-77
2022/06/05 07:09:37;;;;;;;;;;;;;;;;;;5015053;28;20356;-77
2022/06/05 07:12:03;;;;;;;;;;;;;;;;;;5051238;28;19912;-77
2022/06/05 07:14:28;;;;;;;;;;;;;;;;;;5054386;28;20292;-77
2022/06/05 07:16:53;;;;;;;;;;;;;;;;;;5054757;28;19931;-78
2022/06/05 07:19:19;;;;;;;;;;;;;;;;;;5054776;28;20383;-77
2022/06/05 07:21:44;;;;;;;;;;;;;;;;;;5054278;28;19912;-77
2022/06/05 07:24:10;;;;;;;;;;;;;;;;;;5054160;28;19972;-77
2022/06/05 07:26:35;;;;;;;;;;;;;;;;;;5054203;28;20375;-78
2022/06/05 07:29:01;;;;;;;;;;;;;;;;;;5033081;28;20291;-77
2022/06/05 07:31:27;;;;;;;;;;;;;;;;;;5050214;28;19970;-77
2022/06/05 07:33:53;;;;;;;;;;;;;;;;;;5032574;28;19955;-78
2022/06/05 07:36:20;;;;;;;;;;;;;;;;;;5032935;28;19913;-76
2022/06/05 07:38:46;;;;;;;;;;;;;;;;;;5035247;28;19954;-76
2022/06/05 07:41:11;;;;;;;;;;;;;;;;;;5032952;28;19913;-77
2022/06/05 07:43:36;;;;;;;;;;;;;;;;;;5017536;28;19909;-78
2022/06/05 07:46:02;;;;;;;;;;;;;;;;;;5054194;28;20256;-78
2022/06/05 07:48:27;;;;;;;;;;;;;;;;;;5032528;28;19924;-78
2022/06/05 07:56:21;;;;;;;;;;;;;;;;;;5032501;28;19923;-76
2022/06/05 07:58:46;;;;;;;;;;;;;;;;;;5035156;28;19905;-78
2022/06/05 08:01:12;;;;;;;;;;;;;;;;;;5032693;28;19909;-77
2022/06/05 08:03:37;;;;;;;;;;;;;;;;;;5033804;28;19932;-77
2022/06/05 08:06:03;;;;;;;;;;;;;;;;;;5032893;28;19959;-76
2022/06/05 08:08:28;;;;;;;;;;;;;;;;;;5050135;28;19909;-78
2022/06/05 08:10:53;;;;;;;;;;;;;;;;;;5032278;28;19944;-77
2022/06/05 08:13:19;;;;;;;;;;;;;;;;;;5032019;28;19952;-77
2022/06/05 08:15:44;;;;;;;;;;;;;;;;;;5032102;28;19917;-79
2022/06/05 08:18:09;;;;;;;;;;;;;;;;;;5026521;28;19909;-76
2022/06/05 08:20:35;;;;;;;;;;;;;;;;;;5032792;28;20008;-77
2022/06/05 08:23:00;;;;;;;;;;;;;;;;;;5033901;28;19913;-77
2022/06/05 08:25:26;;;;;;;;;;;;;;;;;;5028895;28;20424;-76
2022/06/05 08:27:51;;;;;;;;;;;;;;;;;;5032076;28;20387;-78
2022/06/05 08:30:16;;;;;;;;;;;;;;;;;;5011084;28;19909;-78
2022/06/05 08:32:42;;;;;;;;;;;;;;;;;;5032850;28;19960;-78
2022/06/05 08:35:07;;;;;;;;;;;;;;;;;;5026248;28;20407;-77
2022/06/05 08:43:01;;;;;;;;;;;;;;;;;;5030709;28;19913;-78
2022/06/05 08:45:26;;;;;;;;;;;;;;;;;;5032650;28;19909;-77
2022/06/05 08:47:51;;;;;;;;;;;;;;;;;;5014625;28;19912;-77
2022/06/05 08:50:20;;;;;;;;;;;;;;;;;;5032506;28;19909;-77
2022/06/05 08:52:45;;;;;;;;;;;;;;;;;;5013839;28;20284;-77
2022/06/05 08:55:11;;;;;;;;;;;;;;;;;;5025817;28;19913;-78
2022/06/05 08:57:36;;;;;;;;;;;;;;;;;;5032772;28;19909;-77
2022/06/05 09:00:02;;;;;;;;;;;;;;;;;;5024671;28;19955;-78
2022/06/05 09:02:28;;;;;;;;;;;;;;;;;;5032249;28;19923;-77
2022/06/05 09:04:53;;;;;;;;;;;;;;;;;;5032706;28;20033;-77
2022/06/05 09:07:19;;;;;;;;;;;;;;;;;;5027047;28;19927;-79
2022/06/05 09:09:44;;;;;;;;;;;;;;;;;;5032469;28;19944;-77
2022/06/05 09:12:09;;;;;;;;;;;;;;;;;;4995967;28;19913;-78
2022/06/05 09:14:35;;;;;;;;;;;;;;;;;;5049613;28;20376;-78
2022/06/05 09:17:01;;;;;;;;;;;;;;;;;;5034278;28;19991;-78
2022/06/05 09:19:27;;;;;;;;;;;;;;;;;;5034531;28;20352;-77
2022/06/05 09:21:52;;;;;;;;;;;;;;;;;;5034300;28;19908;-78
2022/06/05 09:24:17;;;;;;;;;;;;;;;;;;5051864;28;19916;-77
2022/06/05 09:26:43;;;;;;;;;;;;;;;;;;5017828;28;19917;-78
2022/06/05 09:29:08;;;;;;;;;;;;;;;;;;5051920;28;19916;-77
2022/06/05 09:31:34;;;;;;;;;;;;;;;;;;5052298;28;20364;-77
2022/06/05 09:33:59;;;;;;;;;;;;;;;;;;5052274;28;19909;-79
2022/06/05 09:36:24;;;;;;;;;;;;;;;;;;5051849;28;20009;-77
2022/06/05 09:38:56;;;;;;;;;;;;;;;;;;5018439;28;19975;-77
2022/06/05 09:41:21;;;;;;;;;;;;;;;;;;5051770;28;20337;-78
2022/06/05 09:43:46;;;;;;;;;;;;;;;;;;5051727;28;20550;-77
2022/06/05 09:46:12;;;;;;;;;;;;;;;;;;5033885;28;20326;-77
2022/06/05 09:48:37;;;;;;;;;;;;;;;;;;5034001;28;19909;-78
2022/06/05 09:51:03;;;;;;;;;;;;;;;;;;5017272;28;19912;-78
2022/06/05 09:53:28;;;;;;;;;;;;;;;;;;5052941;28;19955;-77
2022/06/05 09:55:56;;;;;;;;;;;;;;;;;;5037860;28;19913;-79
2022/06/05 09:58:24;;;;;;;;;;;;;;;;;;5055702;28;19916;-78
2022/06/05 10:00:50;;;;;;;;;;;;;;;;;;5056486;28;19909;-77
2022/06/05 10:03:15;;;;;;;;;;;;;;;;;;5038163;28;19909;-79
2022/06/05 10:05:44;;;;;;;;;;;;;;;;;;5056067;28;19919;-78
2022/06/05 10:08:10;;;;;;;;;;;;;;;;;;5056022;28;19999;-79
2022/06/05 10:10:38;;;;;;;;;;;;;;;;;;5038183;28;19921;-78
2022/06/05 10:13:03;;;;;;;;;;;;;;;;;;5056046;28;20042;-77
2022/06/05 10:15:29;;;;;;;;;;;;;;;;;;5037924;28;20333;-80
2022/06/05 10:17:56;;;;;;;;;;;;;;;;;;5021163;28;19970;-78
2022/06/05 10:20:22;;;;;;;;;;;;;;;;;;5038192;28;19945;-78
2022/06/05 10:22:47;;;;;;;;;;;;;;;;;;5055335;28;20353;-79
2022/06/05 10:25:13;;;;;;;;;;;;;;;;;;5055885;28;19905;-78
2022/06/05 10:27:39;;;;;;;;;;;;;;;;;;5037885;28;20368;-78
2022/06/05 10:30:05;;;;;;;;;;;;;;;;;;5055033;28;19931;-78
2022/06/05 10:32:30;;;;;;;;;;;;;;;;;;5037421;28;20318;-78
2022/06/05 10:34:56;;;;;;;;;;;;;;;;;;5055364;28;20276;-79
2022/06/05 10:37:21;;;;;;;;;;;;;;;;;;5037711;28;19959;-78
2022/06/05 10:39:46;;;;;;;;;;;;;;;;;;5055311;28;20391;-78
2022/06/05 10:42:12;;;;;;;;;;;;;;;;;;5054951;28;19959;-78
2022/06/05 10:44:37;;;;;;;;;;;;;;;;;;5055157;28;19908;-78
2022/06/05 10:47:03;;;;;;;;;;;;;;;;;;5055633;28;20332;-77
2022/06/05 10:49:28;;;;;;;;;;;;;;;;;;5055122;28;19909;-78
2022/06/05 10:51:54;;;;;;;;;;;;;;;;;;5054940;28;19912;-77
2022/06/05 10:54:19;;;;;;;;;;;;;;;;;;5037485;28;19932;-77
2022/06/05 10:56:45;;;;;;;;;;;;;;;;;;5054745;28;19935;-79
2022/06/05 10:59:11;;;;;;;;;;;;;;;;;;5055618;28;19974;-79
2022/06/05 11:01:36;;;;;;;;;;;;;;;;;;5055375;28;19912;-79
2022/06/05 11:04:02;;;;;;;;;;;;;;;;;;5055251;28;19915;-77
2022/06/05 11:06:28;;;;;;;;;;;;;;;;;;5036647;28;19975;-78
2022/06/05 11:08:53;;;;;;;;;;;;;;;;;;5055138;28;20319;-79
2022/06/05 11:14:03;;;;;;;;;;;;;;;;;;5054583;28;20363;-78
2022/06/05 11:16:28;;;;;;;;;;;;;;;;;;5054614;28;19923;-79
2022/06/05 11:18:54;;;;;;;;;;;;;;;;;;5020317;28;20272;-78
2022/06/05 11:21:19;;;;;;;;;;;;;;;;;;5054625;28;19912;-79
2022/06/05 11:23:45;;;;;;;;;;;;;;;;;;5055008;28;19908;-77
2022/06/05 11:26:10;;;;;;;;;;;;;;;;;;5037377;28;19913;-79
2022/06/05 11:28:35;;;;;;;;;;;;;;;;;;5054428;28;19909;-78
2022/06/05 11:31:01;;;;;;;;;;;;;;;;;;5054543;28;20290;-79
2022/06/05 11:33:26;;;;;;;;;;;;;;;;;;5054477;28;19947;-79
2022/06/05 11:35:52;;;;;;;;;;;;;;;;;;5036429;28;20283;-76
2022/06/05 11:38:17;;;;;;;;;;;;;;;;;;5054357;28;19909;-77
2022/06/05 11:40:43;;;;;;;;;;;;;;;;;;5036278;28;20217;-78
2022/06/05 11:43:08;;;;;;;;;;;;;;;;;;5035902;28;19913;-78
2022/06/05 11:45:34;;;;;;;;;;;;;;;;;;5053660;28;19909;-77
2022/06/05 11:47:59;;;;;;;;;;;;;;;;;;5035804;28;20506;-77
2022/06/05 11:50:25;;;;;;;;;;;;;;;;;;5035725;28;19995;-77
2022/06/05 11:52:50;;;;;;;;;;;;;;;;;;5053410;28;20265;-78
2022/06/05 11:55:16;;;;;;;;;;;;;;;;;;5053584;28;19956;-79
2022/06/05 11:57:41;;;;;;;;;;;;;;;;;;5053766;28;19928;-77
2022/06/05 12:00:06;;;;;;;;;;;;;;;;;;5035603;28;19908;-76
2022/06/05 12:02:33;;;;;;;;;;;;;;;;;;5035726;28;19909;-78
2022/06/05 12:04:59;;;;;;;;;;;;;;;;;;5035884;28;19973;-77
2022/06/05 12:07:24;;;;;;;;;;;;;;;;;;5035865;28;19968;-78
2022/06/05 12:09:50;;;;;;;;;;;;;;;;;;5035441;28;19908;-77
2022/06/05 12:12:16;;;;;;;;;;;;;;;;;;5053106;28;19943;-77
2022/06/05 12:14:42;;;;;;;;;;;;;;;;;;5035095;28;19904;-76
2022/06/05 12:17:07;;;;;;;;;;;;;;;;;;5053473;28;19915;-78
2022/06/05 12:19:33;;;;;;;;;;;;;;;;;;5035998;28;19908;-77
2022/06/05 12:22:03;;;;;;;;;;;;;;;;;;5034943;28;19912;-77
2022/06/05 12:24:29;;;;;;;;;;;;;;;;;;5002398;28;19924;-78
2022/06/05 12:26:54;;;;;;;;;;;;;;;;;;5052713;28;19909;-77
2022/06/05 12:29:20;;;;;;;;;;;;;;;;;;5052873;28;20322;-78
2022/06/05 12:31:45;;;;;;;;;;;;;;;;;;5035067;28;19908;-76
2022/06/05 12:34:11;;;;;;;;;;;;;;;;;;5018913;28;19912;-76
2022/06/05 12:36:36;;;;;;;;;;;;;;;;;;5035093;28;19951;-77
2022/06/05 12:39:02;;;;;;;;;;;;;;;;;;5018760;28;19913;-77
2022/06/05 12:41:28;;;;;;;;;;;;;;;;;;5035200;28;19931;-77
2022/06/05 12:43:53;;;;;;;;;;;;;;;;;;5052977;28;20367;-77
2022/06/05 12:46:19;;;;;;;;;;;;;;;;;;5053069;28;19954;-76
2022/06/05 12:48:44;;;;;;;;;;;;;;;;;;5034815;28;19991;-76
2022/06/05 12:51:12;;;;;;;;;;;;;;;;;;5052616;28;20011;-77
2022/06/05 12:53:38;;;;;;;;;;;;;;;;;;5052461;28;19995;-77
2022/06/05 12:56:03;;;;;;;;;;;;;;;;;;5052107;28;20008;-78
2022/06/05 12:58:29;;;;;;;;;;;;;;;;;;5017814;28;20306;-77
2022/06/05 13:00:54;;;;;;;;;;;;;;;;;;5034360;28;19909;-77
2022/06/05 13:03:19;;;;;;;;;;;;;;;;;;5034342;28;20260;-76
2022/06/05 13:05:45;;;;;;;;;;;;;;;;;;5035261;28;19909;-77
2022/06/05 13:08:10;;;;;;;;;;;;;;;;;;5035360;28;20429;-76
2022/06/05 13:10:36;;;;;;;;;;;;;;;;;;5052293;28;20367;-76
2022/06/05 13:13:02;;;;;;;;;;;;;;;;;;5052354;28;19909;-76
2022/06/05 13:15:27;;;;;;;;;;;;;;;;;;5014474;28;20016;-78
2022/06/05 13:17:53;;;;;;;;;;;;;;;;;;5051876;28;19966;-76
2022/06/05 13:20:20;;;;;;;;;;;;;;;;;;5014285;28;19917;-78
2022/06/05 13:22:45;;;;;;;;;;;;;;;;;;5032826;28;19999;-76
2022/06/05 13:25:10;;;;;;;;;;;;;;;;;;5062992;28;19909;-76
2022/06/05 13:27:36;;;;;;;;;;;;;;;;;;5040537;28;19909;-77
2022/06/05 13:30:01;;;;;;;;;;;;;;;;;;5037393;28;19935;-77
2022/06/05 13:32:27;;;;;;;;;;;;;;;;;;5022744;28;19955;-76
2022/06/05 13:34:52;;;;;;;;;;;;;;;;;;5021078;28;19909;-77
2022/06/05 13:37:19;;;;;;;;;;;;;;;;;;5037528;28;20279;-76
2022/06/05 13:39:44;;;;;;;;;;;;;;;;;;5038375;28;19908;-77
2022/06/05 13:42:10;;;;;;;;;;;;;;;;;;5036954;28;19909;-77
2022/06/05 13:44:35;;;;;;;;;;;;;;;;;;5060149;28;19908;-77
2022/06/05 13:47:01;;;;;;;;;;;;;;;;;;5061114;28;19916;-76
2022/06/05 13:49:26;;;;;;;;;;;;;;;;;;5040055;28;19909;-77
2022/06/05 13:51:51;;;;;;;;;;;;;;;;;;5042263;28;20445;-76
2022/06/05 13:54:18;;;;;;;;;;;;;;;;;;5051872;28;19960;-75
2022/06/05 13:56:44;;;;;;;;;;;;;;;;;;5051911;28;19967;-76
2022/06/05 13:59:10;;;;;;;;;;;;;;;;;;5030866;28;20272;-75
2022/06/05 14:01:36;;;;;;;;;;;;;;;;;;5031667;28;19956;-75
2022/06/05 14:04:02;;;;;;;;;;;;;;;;;;5030284;28;20330;-76
2022/06/05 14:06:28;;;;;;;;;;;;;;;;;;5048001;28;19909;-78
2022/06/05 14:08:53;;;;;;;;;;;;;;;;;;5013848;28;19924;-77
2022/06/05 14:11:19;;;;;;;;;;;;;;;;;;5013682;28;19920;-77
2022/06/05 14:13:44;;;;;;;;;;;;;;;;;;5030338;28;19909;-77
2022/06/05 14:16:10;;;;;;;;;;;;;;;;;;5024096;28;20019;-77
2022/06/05 14:18:35;;;;;;;;;;;;;;;;;;5030477;28;19989;-77
2022/06/05 14:21:01;;;;;;;;;;;;;;;;;;5023429;28;20299;-77
2022/06/05 14:23:26;;;;;;;;;;;;;;;;;;5030164;28;19992;-76
2022/06/05 14:25:52;;;;;;;;;;;;;;;;;;5029890;28;20421;-75
2022/06/05 14:28:17;;;;;;;;;;;;;;;;;;5013534;28;19959;-75
2022/06/05 14:30:43;;;;;;;;;;;;;;;;;;5030270;28;20303;-76
2022/06/05 14:33:08;;;;;;;;;;;;;;;;;;5031460;28;19909;-77
2022/06/05 14:35:34;;;;;;;;;;;;;;;;;;5031259;28;19920;-77
2022/06/05 14:37:59;;;;;;;;;;;;;;;;;;5023067;28;19952;-77
2022/06/05 14:40:24;;;;;;;;;;;;;;;;;;5031746;28;19909;-77
2022/06/05 14:42:50;;;;;;;;;;;;;;;;;;5034839;28;19913;-77
2022/06/05 14:45:15;;;;;;;;;;;;;;;;;;5028345;28;20375;-78
2022/06/05 14:47:41;;;;;;;;;;;;;;;;;;5034948;28;19992;-77
2022/06/05 14:50:07;;;;;;;;;;;;;;;;;;5011509;28;20264;-77
2022/06/05 14:52:32;;;;;;;;;;;;;;;;;;5017732;28;19958;-76
2022/06/05 14:57:51;;;;;;;;;;;;;;;;;;5032870;28;19955;-76
2022/06/05 15:00:16;;;;;;;;;;;;;;;;;;5029121;28;19909;-77
2022/06/05 15:02:43;;;;;;;;;;;;;;;;;;5033897;28;19909;-77
2022/06/05 15:05:08;;;;;;;;;;;;;;;;;;5011422;28;19958;-76
2022/06/05 15:07:34;;;;;;;;;;;;;;;;;;5034809;28;19999;-76
2022/06/05 15:09:59;;;;;;;;;;;;;;;;;;5009637;28;19909;-76
2022/06/05 15:12:24;;;;;;;;;;;;;;;;;;5054322;28;20382;-76
2022/06/05 15:14:50;;;;;;;;;;;;;;;;;;5036216;28;20070;-76
2022/06/05 15:17:15;;;;;;;;;;;;;;;;;;5033305;28;19915;-76
2022/06/05 15:19:40;;;;;;;;;;;;;;;;;;5035028;28;20273;-76
2022/06/05 15:22:06;;;;;;;;;;;;;;;;;;5032883;28;19931;-78
2022/06/05 15:24:31;;;;;;;;;;;;;;;;;;5017164;28;19951;-77
2022/06/05 15:26:57;;;;;;;;;;;;;;;;;;5000278;28;20283;-78
2022/06/05 15:29:23;;;;;;;;;;;;;;;;;;5016604;28;20280;-77
2022/06/05 15:31:48;;;;;;;;;;;;;;;;;;5053456;28;19927;-77
2022/06/05 15:34:14;;;;;;;;;;;;;;;;;;5033016;28;19916;-77
2022/06/05 15:36:39;;;;;;;;;;;;;;;;;;5018052;28;20292;-77
2022/06/05 15:39:05;;;;;;;;;;;;;;;;;;5016453;28;19919;-76
2022/06/05 15:41:30;;;;;;;;;;;;;;;;;;5033156;28;19913;-77
2022/06/05 15:44:01;;;;;;;;;;;;;;;;;;5032786;28;19949;-77
2022/06/05 15:46:27;;;;;;;;;;;;;;;;;;5016727;28;20316;-78
2022/06/05 15:48:53;;;;;;;;;;;;;;;;;;5032693;28;20000;-77
2022/06/05 15:51:19;;;;;;;;;;;;;;;;;;5049028;28;19909;-77
2022/06/05 15:53:44;;;;;;;;;;;;;;;;;;5034929;28;19909;-79
2022/06/05 15:56:10;;;;;;;;;;;;;;;;;;5053497;28;20394;-78
2022/06/05 15:58:35;;;;;;;;;;;;;;;;;;5033702;28;19906;-78
2022/06/05 16:01:00;;;;;;;;;;;;;;;;;;5015978;28;20426;-77
2022/06/05 16:03:26;;;;;;;;;;;;;;;;;;5049813;28;19909;-76
2022/06/05 16:05:51;;;;;;;;;;;;;;;;;;5035699;28;19913;-76
2022/06/05 16:08:16;;;;;;;;;;;;;;;;;;5053326;28;20260;-77
2022/06/05 16:10:42;;;;;;;;;;;;;;;;;;5034367;28;19956;-78
2022/06/05 16:13:09;;;;;;;;;;;;;;;;;;5032487;28;20308;-78
2022/06/05 16:15:41;;;;;;;;;;;;;;;;;;5018702;28;20273;-76
2022/06/05 16:18:06;;;;;;;;;;;;;;;;;;5053377;28;20402;-77
2022/06/05 16:20:32;;;;;;;;;;;;;;;;;;5032684;28;19944;-77
2022/06/05 16:22:57;;;;;;;;;;;;;;;;;;5031833;28;19908;-77
2022/06/05 16:25:23;;;;;;;;;;;;;;;;;;5049152;28;20323;-78
2022/06/05 16:27:48;;;;;;;;;;;;;;;;;;5018181;28;19909;-78
2022/06/05 16:30:13;;;;;;;;;;;;;;;;;;5052616;28;19934;-76
2022/06/05 16:32:39;;;;;;;;;;;;;;;;;;5033171;28;20392;-78
2022/06/05 16:37:57;;;;;;;;;;;;;;;;;;5052370;28;19955;-77
2022/06/05 16:40:22;;;;;;;;;;;;;;;;;;5052593;28;19909;-77
2022/06/05 16:42:48;;;;;;;;;;;;;;;;;;5052747;28;19911;-78
2022/06/05 16:45:13;;;;;;;;;;;;;;;;;;5015720;28;19909;-78
2022/06/05 16:47:38;;;;;;;;;;;;;;;;;;5033570;28;19909;-78
2022/06/05 16:50:04;;;;;;;;;;;;;;;;;;5032223;28;20012;-79
2022/06/05 16:52:29;;;;;;;;;;;;;;;;;;5050583;28;19909;-80
2022/06/05 16:54:55;;;;;;;;;;;;;;;;;;5032198;28;20380;-80
2022/06/05 16:57:20;;;;;;;;;;;;;;;;;;5033207;28;19916;-80
2022/06/05 16:59:46;;;;;;;;;;;;;;;;;;5052978;28;20039;-79